createdAt,value
2019-04-20T00:01:19.942Z,7.63
2019-04-20T00:03:43.947Z,7.50
2019-04-20T00:06:11.184Z,8.27
2019-04-20T00:08:41.128Z,7.53
2019-04-20T00:11:16.122Z,8.70
2019-04-20T00:13:48.733Z,7.30
2019-04-20T00:16:08.223Z,9.17
2019-04-20T00:18:42.954Z,9.10
2019-04-20T00:21:24.676Z,8.83
2019-04-20T00:23:56.517Z,8.17
2019-04-20T00:27:01.884Z,8.50
2019-04-20T00:29:20.130Z,8.70
2019-04-20T00:31:44.590Z,7.40
2019-04-20T00:34:07.863Z,7.90
2019-04-20T00:36:27.237Z,7.07
2019-04-20T00:38:59.676Z,7.90
2019-04-20T00:41:25.791Z,7.23
2019-04-20T00:43:53.459Z,6.87
2019-04-20T00:46:28.068Z,7.77
2019-04-20T00:48:59.467Z,8.40
2019-04-20T00:51:35.024Z,6.87
2019-04-20T00:53:52.351Z,7.00
2019-04-20T00:56:18.636Z,8.53
2019-04-20T00:58:57.994Z,7.97
2019-04-20T01:01:36.192Z,7.90
2019-04-20T01:04:07.157Z,7.37
2019-04-20T01:06:56.295Z,8.50
2019-04-20T01:09:18.559Z,8.43
2019-04-20T01:11:48.276Z,8.13
2019-04-20T01:14:17.369Z,7.23
2019-04-20T01:16:52.660Z,7.67
2019-04-20T01:19:15.930Z,7.60
2019-04-20T01:21:49.853Z,7.37
2019-04-20T01:24:20.011Z,5.90
2019-04-20T01:26:43.521Z,6.10
2019-04-20T01:29:21.795Z,6.13
2019-04-20T01:31:55.901Z,5.30
2019-04-20T01:34:26.931Z,5.27
2019-04-20T01:36:55.980Z,6.77
2019-04-20T01:39:18.367Z,5.50
2019-04-20T01:41:37.308Z,5.70
2019-04-20T01:44:05.100Z,6.10
2019-04-20T01:46:33.735Z,5.60
2019-04-20T01:49:07.951Z,5.93
2019-04-20T01:51:42.920Z,5.70
2019-04-20T01:54:22.721Z,5.70
2019-04-20T01:56:53.434Z,5.30
2019-04-20T01:59:48.827Z,6.07
2019-04-20T02:02:24.422Z,5.77
2019-04-20T02:05:10.234Z,6.77
2019-04-20T02:07:40.039Z,6.37
2019-04-20T02:10:06.226Z,6.77
2019-04-20T02:12:35.734Z,5.70
2019-04-20T02:15:04.289Z,6.23
2019-04-20T02:17:39.366Z,6.10
2019-04-20T02:20:18.360Z,6.27
2019-04-20T02:22:50.625Z,5.33
2019-04-20T02:24:59.446Z,6.50
2019-04-20T02:27:34.575Z,5.80
2019-04-20T02:30:21.821Z,5.80
2019-04-20T02:33:14.537Z,5.80
2019-04-20T02:36:00.945Z,6.40
2019-04-20T02:39:00.509Z,5.60
2019-04-20T02:41:11.466Z,6.60
2019-04-20T02:43:57.984Z,8.93
2019-04-20T02:46:08.886Z,6.00
2019-04-20T02:48:39.383Z,6.20
2019-04-20T02:51:06.565Z,5.57
2019-04-20T02:53:41.435Z,5.53
2019-04-20T02:58:41.530Z,6.57
2019-04-20T03:01:03.862Z,5.13
2019-04-20T03:03:24.650Z,6.50
2019-04-20T03:05:57.716Z,6.13
2019-04-20T03:08:27.587Z,5.53
2019-04-20T03:11:09.315Z,5.77
2019-04-20T03:13:32.521Z,6.47
2019-04-20T03:16:02.256Z,5.50
2019-04-20T03:18:25.333Z,5.80
2019-04-20T03:21:04.532Z,5.90
2019-04-20T03:23:33.439Z,5.77
2019-04-20T03:26:12.762Z,5.60
2019-04-20T03:28:51.732Z,8.13
2019-04-20T03:31:47.359Z,5.90
2019-04-20T03:36:49.744Z,5.20
2019-04-20T03:38:49.680Z,5.80
2019-04-20T03:41:13.949Z,5.80
2019-04-20T03:43:32.871Z,5.70
2019-04-20T03:46:06.508Z,5.40
2019-04-20T03:48:48.340Z,6.70
2019-04-20T03:51:23.928Z,6.00
2019-04-20T03:54:02.743Z,6.47
2019-04-20T03:56:41.949Z,5.93
2019-04-20T03:59:25.807Z,5.63
2019-04-20T04:02:29.834Z,5.40
2019-04-20T04:05:06.258Z,5.90
2019-04-20T04:07:24.849Z,4.93
2019-04-20T04:10:03.020Z,6.07
2019-04-20T04:12:51.774Z,6.90
2019-04-20T04:15:20.877Z,5.50
2019-04-20T04:17:49.849Z,6.00
2019-04-20T04:20:19.716Z,6.73
2019-04-20T04:23:03.702Z,8.37
2019-04-20T04:25:29.313Z,5.53
2019-04-20T04:28:01.326Z,5.63
2019-04-20T04:30:31.066Z,6.40
2019-04-20T04:33:34.174Z,6.23
2019-04-20T04:35:26.498Z,5.80
2019-04-20T04:38:04.027Z,7.77
2019-04-20T04:40:42.738Z,6.30
2019-04-20T04:43:05.623Z,5.70
2019-04-20T04:45:15.489Z,6.00
2019-04-20T04:47:42.841Z,6.10
2019-04-20T04:50:16.242Z,6.30
2019-04-20T04:52:53.623Z,5.80
2019-04-20T04:55:24.840Z,6.07
2019-04-20T04:57:41.218Z,6.77
2019-04-20T05:00:19.917Z,5.90
2019-04-20T05:02:48.865Z,6.40
2019-04-20T05:05:37.021Z,8.17
2019-04-20T05:07:59.454Z,12.20
2019-04-20T05:10:18.971Z,5.37
2019-04-20T05:12:58.815Z,6.30
2019-04-20T05:15:37.629Z,5.47
2019-04-20T05:18:16.198Z,5.50
2019-04-20T05:20:46.900Z,6.33
2019-04-20T05:23:31.901Z,6.63
2019-04-20T05:26:31.007Z,7.43
2019-04-20T05:29:01.149Z,6.33
2019-04-20T05:31:34.049Z,7.13
2019-04-20T05:34:26.316Z,5.80
2019-04-20T05:36:49.287Z,5.90
2019-04-20T05:39:27.746Z,6.00
2019-04-20T05:41:45.779Z,6.00
2019-04-20T05:44:25.978Z,6.30
2019-04-20T05:47:01.068Z,6.77
2019-04-20T05:49:30.295Z,6.07
2019-04-20T05:52:18.785Z,5.80
2019-04-20T05:54:40.364Z,6.27
2019-04-20T05:57:07.868Z,6.20
2019-04-20T05:59:37.424Z,7.07
2019-04-20T06:02:03.456Z,5.70
2019-04-20T06:04:46.908Z,6.20
2019-04-20T06:06:59.649Z,5.77
2019-04-20T06:09:33.913Z,5.90
2019-04-20T06:14:44.325Z,5.33
2019-04-20T06:17:20.940Z,6.77
2019-04-20T06:19:57.909Z,6.30
2019-04-20T06:22:37.892Z,6.00
2019-04-20T06:25:31.871Z,6.20
2019-04-20T06:27:49.947Z,6.17
2019-04-20T06:30:06.868Z,6.37
2019-04-20T06:33:24.617Z,7.00
2019-04-20T06:36:11.454Z,6.07
2019-04-20T06:38:36.549Z,6.47
2019-04-20T06:40:58.015Z,6.20
2019-04-20T06:43:12.572Z,16.03
2019-04-20T06:45:54.867Z,7.57
2019-04-20T06:48:22.128Z,6.20
2019-04-20T06:50:44.130Z,6.20
2019-04-20T06:53:47.035Z,6.30
2019-04-20T06:56:24.759Z,4.90
2019-04-20T06:58:57.460Z,5.40
2019-04-20T07:01:21.805Z,6.50
2019-04-20T07:04:02.233Z,6.00
2019-04-20T07:06:41.754Z,6.30
2019-04-20T07:11:23.847Z,5.90
2019-04-20T07:13:41.217Z,6.80
2019-04-20T07:16:36.362Z,6.00
2019-04-20T07:19:31.322Z,5.90
2019-04-20T07:22:25.410Z,6.03
2019-04-20T07:24:46.283Z,7.00
2019-04-20T07:27:12.230Z,6.50
2019-04-20T07:29:46.078Z,6.07
2019-04-20T07:32:01.770Z,5.07
2019-04-20T07:34:45.546Z,6.73
2019-04-20T07:37:43.197Z,5.87
2019-04-20T07:39:48.337Z,6.20
2019-04-20T07:42:16.827Z,5.40
2019-04-20T07:44:51.464Z,6.40
2019-04-20T07:47:24.141Z,6.40
2019-04-20T07:49:40.395Z,6.10
2019-04-20T07:51:57.595Z,5.83
2019-04-20T07:55:03.475Z,6.53
2019-04-20T07:57:15.852Z,6.20
2019-04-20T07:59:35.658Z,5.20
2019-04-20T08:02:43.884Z,5.60
2019-04-20T08:05:58.207Z,6.00
2019-04-20T08:08:43.777Z,5.63
2019-04-20T08:11:13.830Z,6.27
2019-04-20T08:20:54.096Z,6.07
2019-04-20T08:23:23.107Z,5.50
2019-04-20T08:26:01.729Z,5.77
2019-04-20T08:29:05.272Z,7.07
2019-04-20T08:32:22.899Z,7.00
2019-04-20T08:34:57.711Z,5.77
2019-04-20T08:37:26.128Z,6.03
2019-04-20T08:40:08.810Z,6.00
2019-04-20T08:42:59.698Z,5.87
2019-04-20T08:45:23.605Z,6.13
2019-04-20T08:51:59.963Z,5.30
2019-04-20T08:57:59.933Z,5.67
2019-04-20T09:00:33.307Z,6.20
2019-04-20T09:03:12.345Z,5.67
2019-04-20T09:06:32.319Z,5.07
2019-04-20T09:09:08.010Z,5.33
2019-04-20T09:11:46.897Z,6.40
2019-04-20T09:18:20.987Z,6.33
2019-04-20T09:20:56.057Z,5.13
2019-04-20T09:24:23.842Z,5.40
2019-04-20T09:26:57.280Z,5.90
2019-04-20T09:29:23.313Z,5.77
2019-04-20T09:32:26.320Z,5.40
2019-04-20T09:34:47.834Z,5.77
2019-04-20T09:38:01.711Z,4.67
2019-04-20T09:40:38.928Z,5.10
2019-04-20T09:43:12.839Z,5.10
2019-04-20T09:45:53.681Z,5.87
2019-04-20T09:48:34.681Z,6.03
2019-04-20T09:51:34.723Z,5.30
2019-04-20T09:56:55.603Z,5.70
2019-04-20T09:59:44.814Z,6.10
2019-04-20T10:02:02.229Z,5.20
2019-04-20T10:04:29.080Z,5.60
2019-04-20T10:07:11.407Z,5.33
2019-04-20T10:09:59.963Z,4.83
2019-04-20T10:12:40.013Z,5.53
2019-04-20T10:15:19.471Z,4.63
2019-04-20T10:17:52.260Z,5.57
2019-04-20T10:20:27.593Z,5.00
2019-04-20T10:22:50.893Z,5.70
2019-04-20T10:25:18.675Z,5.40
2019-04-20T10:27:53.556Z,4.43
2019-04-20T10:30:23.009Z,4.70
2019-04-20T10:32:53.950Z,4.87
2019-04-20T10:35:21.344Z,5.17
2019-04-20T10:37:53.573Z,5.90
2019-04-20T10:40:39.098Z,3.47
2019-04-20T10:42:55.456Z,4.50
2019-04-20T10:45:24.492Z,4.57
2019-04-20T10:47:55.155Z,3.60
2019-04-20T10:50:23.004Z,4.20
2019-04-20T10:53:05.829Z,3.83
2019-04-20T10:55:35.481Z,3.37
2019-04-20T10:58:03.810Z,3.00
2019-04-20T11:00:42.087Z,3.83
2019-04-20T11:03:11.337Z,3.60
2019-04-20T11:05:40.529Z,3.67
2019-04-20T11:08:08.724Z,3.67
2019-04-20T11:10:52.067Z,3.47
2019-04-20T11:13:09.645Z,3.60
2019-04-20T11:15:38.787Z,3.70
2019-04-20T11:18:07.083Z,3.50
2019-04-20T11:20:35.294Z,3.50
2019-04-20T11:23:04.272Z,3.80
2019-04-20T11:25:32.470Z,3.50
2019-04-20T11:28:00.147Z,3.87
2019-04-20T11:30:28.007Z,3.77
2019-04-20T11:32:56.011Z,3.83
2019-04-20T11:35:31.196Z,3.13
2019-04-20T11:37:55.443Z,3.57
2019-04-20T11:40:23.389Z,4.13
2019-04-20T11:42:50.969Z,3.20
2019-04-20T11:45:20.700Z,3.47
2019-04-20T11:48:09.551Z,3.80
2019-04-20T11:50:37.769Z,3.27
2019-04-20T11:53:05.565Z,3.20
2019-04-20T11:55:34.097Z,3.30
2019-04-20T11:58:02.183Z,3.77
2019-04-20T12:00:46.006Z,3.10
2019-04-20T12:03:24.783Z,3.30
2019-04-20T12:06:12.713Z,3.00
2019-04-20T12:08:43.596Z,3.03
2019-04-20T12:11:22.771Z,3.87
2019-04-20T12:13:42.621Z,4.20
2019-04-20T12:16:10.274Z,2.93
2019-04-20T12:18:42.111Z,2.60
2019-04-20T12:21:10.625Z,2.47
2019-04-20T12:23:40.350Z,2.43
2019-04-20T12:26:08.904Z,2.80
2019-04-20T12:28:38.393Z,3.40
2019-04-20T12:31:11.948Z,3.17
2019-04-20T12:33:36.703Z,3.10
2019-04-20T12:36:07.935Z,3.20
2019-04-20T12:38:39.194Z,2.80
2019-04-20T12:41:10.961Z,3.40
2019-04-20T12:43:38.930Z,3.00
2019-04-20T12:46:07.685Z,3.47
2019-04-20T12:48:36.067Z,2.60
2019-04-20T12:51:04.128Z,2.97
2019-04-20T12:53:32.734Z,2.70
2019-04-20T12:56:08.627Z,2.63
2019-04-20T12:58:43.394Z,2.63
2019-04-20T13:01:10.464Z,2.43
2019-04-20T13:03:39.329Z,2.50
2019-04-20T13:06:14.038Z,1.90
2019-04-20T13:08:48.957Z,2.47
2019-04-20T13:11:20.700Z,2.90
2019-04-20T13:14:26.322Z,2.63
2019-04-20T13:16:55.198Z,3.20
2019-04-20T13:19:25.241Z,3.10
2019-04-20T13:22:03.223Z,3.13
2019-04-20T13:24:39.035Z,2.50
2019-04-20T13:27:07.050Z,2.80
2019-04-20T13:29:40.491Z,2.37
2019-04-20T13:32:09.769Z,2.70
2019-04-20T13:34:40.479Z,2.93
2019-04-20T13:37:08.518Z,3.07
2019-04-20T13:39:36.575Z,3.17
2019-04-20T13:42:12.235Z,2.67
2019-04-20T13:44:36.942Z,2.60
2019-04-20T13:47:07.321Z,3.50
2019-04-20T13:49:36.812Z,2.40
2019-04-20T13:52:08.830Z,2.77
2019-04-20T13:54:44.095Z,2.90
2019-04-20T13:57:31.652Z,2.80
2019-04-20T14:00:02.231Z,2.90
2019-04-20T14:18:05.190Z,3.20
2019-04-20T14:20:44.631Z,3.07
2019-04-20T14:24:04.410Z,3.43
2019-04-20T14:34:04.784Z,3.67
2019-04-20T14:36:50.848Z,3.77
2019-04-20T14:39:20.926Z,3.80
2019-04-20T14:41:50.090Z,3.30
2019-04-20T14:44:23.992Z,3.03
2019-04-20T14:47:09.794Z,4.30
2019-04-20T14:50:09.829Z,3.77
2019-04-20T14:52:39.693Z,3.20
2019-04-20T14:55:12.435Z,3.70
2019-04-20T14:57:43.684Z,3.63
2019-04-20T15:00:37.373Z,3.37
2019-04-20T15:03:26.643Z,3.70
2019-04-20T15:05:59.953Z,3.03
2019-04-20T15:08:43.183Z,3.40
2019-04-20T15:11:22.896Z,3.23
2019-04-20T15:13:53.040Z,4.23
2019-04-20T15:16:30.750Z,4.00
2019-04-20T15:19:21.169Z,4.17
2019-04-20T15:22:05.680Z,3.90
2019-04-20T15:24:57.692Z,3.43
2019-04-20T15:27:28.068Z,4.37
2019-04-20T15:30:00.574Z,4.20
2019-04-20T15:32:33.201Z,3.90
2019-04-20T15:35:01.204Z,5.30
2019-04-20T15:37:29.361Z,3.67
2019-04-20T15:39:57.191Z,4.27
2019-04-20T15:42:25.388Z,4.30
2019-04-20T15:44:55.463Z,4.27
2019-04-20T15:47:56.330Z,3.93
2019-04-20T15:50:45.824Z,3.77
2019-04-20T15:53:17.576Z,4.17
2019-04-20T15:55:47.412Z,4.10
2019-04-20T15:58:20.962Z,3.60
2019-04-20T16:00:54.500Z,4.00
2019-04-20T16:03:35.487Z,3.93
2019-04-20T16:06:35.187Z,3.90
2019-04-20T16:09:12.435Z,4.00
2019-04-20T16:11:46.696Z,4.00
2019-04-20T16:14:19.619Z,3.70
2019-04-20T16:16:56.495Z,4.53
2019-04-20T16:20:03.960Z,3.73
2019-04-20T16:22:30.921Z,4.60
2019-04-20T16:25:19.214Z,4.30
2019-04-20T16:27:53.850Z,4.50
2019-04-20T16:30:33.956Z,5.57
2019-04-20T16:33:10.476Z,3.77
2019-04-20T16:35:40.587Z,4.00
2019-04-20T16:38:10.682Z,4.07
2019-04-20T16:40:42.105Z,4.07
2019-04-20T16:43:20.915Z,4.47
2019-04-20T16:45:45.468Z,4.53
2019-04-20T16:48:20.440Z,4.30
2019-04-20T16:50:53.137Z,3.37
2019-04-20T16:53:22.572Z,3.93
2019-04-20T16:55:54.653Z,3.93
2019-04-20T16:58:29.259Z,3.40
2019-04-20T17:00:59.261Z,4.37
2019-04-20T17:03:40.899Z,3.73
2019-04-20T17:06:10.145Z,3.77
2019-04-20T17:08:41.570Z,3.90
2019-04-20T17:11:13.930Z,3.83
2019-04-20T17:13:55.329Z,3.40
2019-04-20T17:17:11.994Z,3.80
2019-04-20T17:20:03.890Z,2.80
2019-04-20T17:23:27.878Z,3.30
2019-04-20T17:26:40.894Z,3.53
2019-04-20T17:29:30.620Z,3.60
2019-04-20T17:32:43.441Z,3.00
2019-04-20T17:35:34.646Z,3.57
2019-04-20T17:38:24.657Z,2.97
2019-04-20T17:41:13.728Z,3.20
2019-04-20T17:43:56.728Z,2.90
2019-04-20T17:46:12.088Z,3.47
2019-04-20T17:48:46.811Z,3.63
2019-04-20T17:51:31.467Z,2.60
2019-04-20T17:54:05.297Z,2.80
2019-04-20T17:56:36.230Z,3.30
2019-04-20T17:59:04.280Z,3.47
2019-04-20T18:02:06.625Z,3.60
2019-04-20T18:04:53.765Z,3.30
2019-04-20T18:07:17.997Z,3.37
2019-04-20T18:09:50.453Z,3.63
2019-04-20T18:12:04.563Z,3.47
2019-04-20T18:14:45.955Z,3.20
2019-04-20T18:17:25.949Z,3.57
2019-04-20T18:19:49.119Z,4.90
2019-04-20T18:22:16.591Z,5.10
2019-04-20T18:25:10.109Z,6.27
2019-04-20T18:27:39.965Z,5.30
2019-04-20T18:30:05.376Z,4.10
2019-04-20T18:32:27.437Z,3.80
2019-04-20T18:35:04.537Z,3.57
2019-04-20T18:37:30.999Z,4.47
2019-04-20T18:40:10.760Z,3.90
2019-04-20T18:42:43.792Z,4.10
2019-04-20T18:45:30.933Z,3.20
2019-04-20T18:48:14.686Z,3.23
2019-04-20T18:50:34.641Z,3.83
2019-04-20T18:52:57.932Z,7.57
2019-04-20T18:55:39.048Z,19.63
2019-04-20T18:57:59.378Z,9.30
2019-04-20T19:00:33.862Z,4.93
2019-04-20T19:03:11.988Z,4.50
2019-04-20T19:05:35.752Z,5.00
2019-04-20T19:08:11.526Z,4.73
2019-04-20T19:10:42.069Z,4.70
2019-04-20T19:13:23.826Z,6.10
2019-04-20T19:16:16.493Z,5.20
2019-04-20T19:19:00.607Z,4.17
2019-04-20T19:21:21.195Z,6.30
2019-04-20T19:24:02.056Z,4.83
2019-04-20T19:26:54.322Z,6.67
2019-04-20T19:29:33.030Z,6.20
2019-04-20T19:33:08.976Z,6.10
2019-04-20T19:35:40.574Z,6.10
2019-04-20T19:38:09.369Z,6.67
2019-04-20T19:41:30.651Z,6.90
2019-04-20T19:44:03.990Z,6.37
2019-04-20T19:47:07.301Z,6.57
2019-04-20T19:49:36.034Z,7.80
2019-04-20T19:52:56.080Z,6.40
2019-04-20T19:55:26.034Z,5.87
2019-04-20T20:01:11.517Z,7.23
2019-04-20T20:15:36.435Z,10.97
2019-04-20T20:23:03.754Z,6.13
2019-04-20T21:38:51.833Z,5.30
2019-04-20T21:42:47.975Z,6.20
2019-04-20T21:45:28.676Z,5.73
2019-04-20T21:51:30.356Z,5.87
2019-04-20T21:54:15.978Z,6.00
2019-04-20T21:57:08.953Z,5.73
2019-04-20T22:03:18.559Z,6.20
2019-04-20T22:06:08.581Z,4.90
2019-04-20T22:08:51.808Z,7.50
2019-04-20T22:14:58.764Z,5.97
2019-04-20T22:17:27.590Z,6.73
2019-04-20T22:20:04.079Z,6.50
2019-04-20T22:22:43.123Z,5.87
2019-04-20T22:25:12.158Z,5.00
2019-04-20T22:27:34.862Z,5.97
2019-04-20T22:30:12.162Z,6.73
2019-04-20T22:33:25.010Z,7.03
2019-04-20T22:35:57.674Z,7.50
2019-04-20T22:38:48.052Z,6.57
2019-04-20T22:41:20.150Z,6.77
2019-04-20T22:43:54.668Z,7.33
2019-04-20T22:50:45.942Z,7.47
2019-04-20T23:20:20.584Z,7.60
2019-04-20T23:22:51.190Z,7.60
2019-04-20T23:26:03.072Z,9.73
2019-04-20T23:29:02.561Z,7.90
2019-04-20T23:31:55.108Z,8.30
2019-04-20T23:34:29.044Z,8.47
2019-04-20T23:37:46.303Z,8.13
2019-04-20T23:51:28.986Z,8.60
2019-04-20T23:57:33.739Z,9.40
